MMCZMHLM

Guest
Details From MMCZ - Cozumel Intl
To MHLM - La Mesa Intl
Flight Number -
Tags generated
Created
Modified
Stats Distance 310 nm / 574 km
Max Altitude 20,000 ft / 6,096 m
Waypoints 7
Social Downloads 0
Likes 0
Share VATSIM

Download

Looking for another format? Having issues loading an existing format? Contact us
Advertisement - Login to hide

Notes

Basic altitude profile: - Ascent Rate: 2500ft/min - Ascent Speed: 100kts - Cruise Altitude: 35000ft - Cruise Speed: 120kts - Descent Rate: 1500ft/min - Descent Speed: 120kts Options: - Use NATs: yes - Use PACOTS: yes - Use low airways: yes - Use high airways: yes

Route

MMCZ CZM G521 AMIDA UG521 KIRAP G521 LMS MHLM

ID Type Via Altitude Latitude Longitude Leg Dist Tot Dist Heading (true) Name
O MMCZ APT - 0 ft / 0 m 20.52284˚ -86.92814˚ - 0 nm - Cozumel Intl
CZM VOR - 0 ft / 0 m 20.52206˚ -86.92928˚ 0 nm 0 nm 233° / 233° COZUMEL VOR-DME
AMIDA FIX G521 (AWY-LO) 18,500 ft / 5,639 m 18.62944˚ -87.30167˚ 115 nm 115 nm 191° / 190° -
KIRAP FIX UG521 (AWY-HI) 20,000 ft / 6,096 m 17.05639˚ -87.60639˚ 96 nm 211 nm 190° / 190° -
KORTI FIX G521 (AWY-LO) 8,800 ft / 2,682 m 16.12500˚ -87.78500˚ 56 nm 268 nm 190° / 190° -
LMS VOR G521 (AWY-LO) 7,000 ft / 2,134 m 15.46983˚ -87.90853˚ 39 nm 308 nm 190° / 190° LA MESA VOR-DME
O MHLM APT - 0 ft / 0 m 15.45196˚ -87.92415˚ 1 nm 310 nm 220° / 220° La Mesa Intl

Altitude Profile

Advertisement - Login to hide

Weather


0- 5 10 15 20 25 30 35+ Temperature / ° C

Clouds and Precipitation
Forecast for 2017-12-15 00:00 UTC. Updated 2 minutes ago

Ground ~20,000 ft ~40,000 ft Winds

MMCZ

Details ICAO MMCZ (CZM)
Name Cozumel Intl
Region Mexico
Timezone America/Cancun (UTC-5.0)
Stats Elevation 15 ft / 5 m (AMSL)
Location 20.522845° -86.928142°
Runways 2
Magnetic Variation 1.777° W

METAR

MMCZ 142044Z 06007KT 8SM FEW015 BKN080 25/18 A2997 RMK SLP154 55016 975 8/530

Decode

TAF

Not found

Departure Runways

ID Width Length Bearing (true) Bearing (mag) Surface Threshold Offset Overrun Length
05 148 ft / 45 m 10,172 ft / 3,101 m 55.07° 56.85° Asphalt 2,530 ft / 771 m 0 ft / 0 m
11 148 ft / 45 m 8,866 ft / 2,702 m 115.78° 117.56° Asphalt 656 ft / 200 m 0 ft / 0 m
23 148 ft / 45 m 10,172 ft / 3,101 m 235.08° 236.86° Asphalt 0 ft / 0 m 190 ft / 58 m
29 148 ft / 45 m 8,866 ft / 2,702 m 295.79° 297.57° Asphalt 0 ft / 0 m 210 ft / 64 m

MHLM

Details ICAO MHLM (SAP)
Name La Mesa Intl
Region Honduras
Timezone America/Tegucigalpa (UTC-6.0)
Stats Elevation 91 ft / 28 m (AMSL)
Location 15.451957° -87.924153°
Runways 1
Magnetic Variation 0.474° W

METAR

MHLM 142100Z 36011KT 9999 FEW030 SCT250 27/20 Q1012 A2989 NOSIG

Decode

TAF

Not found

Destination Runways

ID Width Length Bearing (true) Bearing (mag) Surface Threshold Offset Overrun Length
04 148 ft / 45 m 9,232 ft / 2,814 m 40.08° 40.55° Concrete 656 ft / 200 m 262 ft / 80 m
22 148 ft / 45 m 9,232 ft / 2,814 m 220.08° 220.55° Concrete 0 ft / 0 m 492 ft / 150 m

Popular Alternatives